Time;durP1;ratioP1;P1;durP2;ratioP2;P2;SDS_P1;SDS_P2;PMS_P1;PMS_P2;Temp;Humidity;BMP_temperature;BMP_pressure;BME280_temperature;BME280_humidity;BME280_pressure;Samples;Min_cycle;Max_cycle;Signal;HPM_P1;HPM_P2
2021/08/14 00:00:58;;;;;;;10.30;4.50;;;19.60;61.10;;;;;;5066516;28;20297;-92
2021/08/14 00:03:24;;;;;;;5.40;3.50;;;19.60;61.10;;;;;;5052717;28;20258;-92
2021/08/14 00:05:49;;;;;;;15.33;4.40;;;19.70;61.10;;;;;;5053998;28;20184;-92
2021/08/14 00:08:15;;;;;;;12.60;4.57;;;19.60;60.90;;;;;;5052884;28;20422;-92
2021/08/14 00:10:41;;;;;;;7.63;4.53;;;19.60;60.90;;;;;;5053301;28;20203;-92
2021/08/14 00:13:07;;;;;;;12.30;4.60;;;19.50;61.00;;;;;;5052028;28;20580;-92
2021/08/14 00:15:32;;;;;;;11.03;4.30;;;19.60;61.00;;;;;;5052112;28;20181;-92
2021/08/14 00:17:58;;;;;;;15.33;5.23;;;19.60;60.70;;;;;;5052627;28;20496;-92
2021/08/14 00:20:24;;;;;;;10.50;4.63;;;19.50;60.90;;;;;;5052347;28;20636;-92
2021/08/14 00:22:49;;;;;;;7.27;4.03;;;19.50;62.00;;;;;;5052561;28;20213;-91
2021/08/14 00:25:15;;;;;;;18.70;5.00;;;19.50;61.30;;;;;;5052695;28;20180;-92
2021/08/14 00:27:41;;;;;;;16.27;6.07;;;19.50;61.50;;;;;;5052422;28;20173;-92
2021/08/14 00:30:07;;;;;;;8.47;5.50;;;19.30;61.80;;;;;;5052557;28;20319;-92
2021/08/14 00:32:33;;;;;;;9.48;4.07;;;19.30;62.00;;;;;;5052243;28;20231;-92
2021/08/14 00:34:59;;;;;;;9.87;4.60;;;19.30;62.10;;;;;;5054971;28;20218;-92
2021/08/14 00:37:24;;;;;;;11.77;5.50;;;19.40;61.90;;;;;;5073770;28;20461;-92
2021/08/14 00:39:50;;;;;;;13.03;4.70;;;19.40;62.20;;;;;;5063674;28;20188;-93
2021/08/14 00:42:16;;;;;;;13.93;4.87;;;19.30;62.30;;;;;;5052036;28;20443;-92
2021/08/14 00:44:42;;;;;;;19.27;4.87;;;19.20;62.40;;;;;;5052909;28;20204;-92
2021/08/14 00:47:08;;;;;;;11.90;4.67;;;19.20;62.60;;;;;;5053239;28;20173;-91
2021/08/14 00:49:34;;;;;;;11.73;4.60;;;19.10;62.90;;;;;;5052114;28;20548;-92
2021/08/14 00:52:00;;;;;;;9.73;4.50;;;19.20;63.10;;;;;;5058616;28;20201;-92
2021/08/14 00:54:26;;;;;;;14.52;5.07;;;19.20;63.20;;;;;;5052680;28;20656;-93
2021/08/14 00:56:53;;;;;;;9.10;4.13;;;19.40;63.10;;;;;;5065813;28;20189;-92
2021/08/14 00:59:19;;;;;;;14.13;4.82;;;19.40;62.80;;;;;;5053096;28;20220;-92
2021/08/14 01:01:45;;;;;;;11.30;5.00;;;19.50;62.80;;;;;;5051937;28;20177;-92
2021/08/14 01:04:14;;;;;;;23.30;4.50;;;19.30;62.90;;;;;;5052637;28;20521;-92
2021/08/14 01:06:40;;;;;;;15.48;6.05;;;19.20;63.10;;;;;;5052918;28;20415;-92
2021/08/14 01:09:06;;;;;;;7.60;4.00;;;19.30;63.30;;;;;;5052435;28;20185;-92
2021/08/14 01:11:32;;;;;;;15.93;4.80;;;19.20;63.30;;;;;;5052475;28;20173;-92
2021/08/14 01:13:58;;;;;;;14.40;4.07;;;19.30;63.30;;;;;;5052299;28;20197;-92
2021/08/14 01:16:27;;;;;;;11.48;4.90;;;19.30;63.30;;;;;;5052328;28;20596;-92
2021/08/14 01:18:53;;;;;;;12.52;4.88;;;19.10;63.40;;;;;;5052011;28;20181;-92
2021/08/14 01:21:23;;;;;;;13.38;4.22;;;18.90;63.60;;;;;;5052117;28;20207;-91
2021/08/14 01:23:52;;;;;;;13.50;5.18;;;18.90;63.90;;;;;;5052956;28;20212;-92
2021/08/14 01:26:18;;;;;;;11.45;4.38;;;19.00;64.00;;;;;;5052113;28;20173;-92
2021/08/14 01:28:44;;;;;;;13.77;4.17;;;19.10;63.80;;;;;;5052001;28;20300;-92
2021/08/14 01:31:12;;;;;;;18.52;5.38;;;19.00;63.60;;;;;;5051880;28;20418;-91
2021/08/14 01:33:40;;;;;;;14.02;4.57;;;18.80;63.90;;;;;;5051789;28;20239;-92
2021/08/14 01:36:07;;;;;;;13.98;4.55;;;18.70;64.30;;;;;;5051835;28;20521;-92
2021/08/14 01:38:33;;;;;;;17.33;4.70;;;18.60;64.50;;;;;;5052120;28;20185;-92
2021/08/14 01:40:59;;;;;;;10.38;4.75;;;18.60;64.80;;;;;;5051574;28;20177;-92
2021/08/14 01:43:25;;;;;;;11.67;4.87;;;18.60;65.00;;;;;;5051963;28;20223;-92
2021/08/14 01:45:51;;;;;;;12.50;5.30;;;18.80;64.90;;;;;;5051775;28;20454;-92
2021/08/14 01:48:17;;;;;;;16.13;5.63;;;18.90;64.60;;;;;;5052046;28;20416;-92
2021/08/14 01:50:43;;;;;;;11.07;5.10;;;18.80;64.40;;;;;;5055841;28;20416;-92
2021/08/14 01:53:09;;;;;;;11.87;4.47;;;18.70;64.70;;;;;;5068668;28;20215;-92
2021/08/14 01:55:36;;;;;;;15.35;5.55;;;18.50;65.10;;;;;;5058359;28;20530;-91
2021/08/14 01:58:05;;;;;;;10.13;4.63;;;18.50;65.40;;;;;;5060335;28;20181;-92
2021/08/14 02:00:31;;;;;;;7.65;4.53;;;18.40;65.50;;;;;;5055989;28;20177;-92
2021/08/14 02:02:58;;;;;;;14.40;4.90;;;18.50;65.80;;;;;;5054975;28;20695;-92
2021/08/14 02:05:23;;;;;;;10.00;4.68;;;18.70;65.50;;;;;;5055343;28;20173;-92
2021/08/14 02:07:49;;;;;;;14.13;4.50;;;18.70;65.20;;;;;;5055467;28;20227;-92
2021/08/14 02:10:15;;;;;;;11.33;4.10;;;18.70;65.20;;;;;;5055068;28;20173;-92
2021/08/14 02:12:41;;;;;;;13.60;5.80;;;18.70;65.10;;;;;;5055382;28;20200;-92
2021/08/14 02:15:08;;;;;;;10.27;5.13;;;18.50;65.40;;;;;;5055517;28;20652;-92
2021/08/14 02:17:34;;;;;;;15.50;6.32;;;18.50;65.80;;;;;;5055920;28;20443;-92
2021/08/14 02:19:59;;;;;;;20.00;5.43;;;18.40;66.00;;;;;;5057255;28;20185;-92
2021/08/14 02:22:25;;;;;;;16.00;4.93;;;18.40;66.20;;;;;;5055545;28;20532;-92
2021/08/14 02:24:51;;;;;;;13.50;5.20;;;18.30;66.40;;;;;;5057535;28;20177;-92
2021/08/14 02:27:17;;;;;;;13.03;5.23;;;18.30;66.40;;;;;;5058146;28;20526;-92
2021/08/14 02:29:42;;;;;;;25.57;5.03;;;18.40;66.30;;;;;;5056862;28;20177;-92
2021/08/14 02:32:08;;;;;;;20.67;4.57;;;18.30;66.50;;;;;;5057147;28;20283;-91
2021/08/14 02:34:34;;;;;;;12.63;5.33;;;18.40;66.30;;;;;;5056770;28;20178;-92
2021/08/14 02:37:00;;;;;;;11.40;5.47;;;18.40;66.40;;;;;;5057198;28;20420;-92
2021/08/14 02:39:26;;;;;;;10.23;5.07;;;18.50;66.20;;;;;;5057090;28;20181;-92
2021/08/14 02:41:51;;;;;;;12.60;4.20;;;18.20;66.30;;;;;;5058985;28;20439;-91
2021/08/14 02:44:17;;;;;;;11.93;4.70;;;18.20;66.50;;;;;;5058065;28;20204;-92
2021/08/14 02:46:43;;;;;;;9.73;3.97;;;18.20;66.80;;;;;;5062595;28;20203;-91
2021/08/14 02:49:08;;;;;;;11.60;4.20;;;18.10;67.00;;;;;;5075556;28;20184;-92
2021/08/14 02:51:34;;;;;;;15.03;4.40;;;18.10;67.00;;;;;;5066434;28;20196;-91
2021/08/14 02:54:00;;;;;;;14.20;4.67;;;18.10;67.30;;;;;;5065359;28;20625;-92
2021/08/14 02:56:25;;;;;;;10.60;5.20;;;18.00;67.30;;;;;;5056438;28;20312;-92
2021/08/14 02:58:51;;;;;;;12.40;4.50;;;18.00;67.60;;;;;;5054098;28;20223;-92
2021/08/14 03:01:17;;;;;;;9.20;4.87;;;18.10;67.60;;;;;;5057485;28;20177;-91
2021/08/14 03:03:43;;;;;;;10.50;4.50;;;18.10;67.50;;;;;;5055775;28;20212;-92
2021/08/14 03:06:25;;;;;;;12.32;4.65;;;18.10;67.40;;;;;;5053758;28;20197;-92
2021/08/14 03:08:51;;;;;;;15.70;4.75;;;18.10;67.40;;;;;;5053929;28;20196;-92
2021/08/14 03:11:17;;;;;;;12.10;5.43;;;18.20;67.30;;;;;;5053841;28;20173;-91
2021/08/14 03:13:43;;;;;;;12.45;5.57;;;18.30;67.10;;;;;;5053554;28;20487;-92
2021/08/14 03:16:08;;;;;;;16.13;5.30;;;18.40;67.00;;;;;;5053342;28;20644;-92
2021/08/14 03:18:34;;;;;;;15.40;5.57;;;18.30;66.80;;;;;;5053627;28;20173;-91
2021/08/14 03:21:00;;;;;;;15.93;4.97;;;18.30;66.90;;;;;;5053454;28;20488;-92
2021/08/14 03:23:25;;;;;;;10.20;4.30;;;18.10;67.20;;;;;;5053235;28;20613;-92
2021/08/14 03:25:51;;;;;;;11.07;6.00;;;18.00;67.50;;;;;;5054950;28;20223;-92
2021/08/14 03:28:17;;;;;;;12.63;4.70;;;17.80;67.80;;;;;;5053354;28;20586;-92
2021/08/14 03:30:42;;;;;;;21.23;5.00;;;17.70;68.10;;;;;;5053495;28;20200;-92
2021/08/14 03:33:08;;;;;;;15.50;5.07;;;17.90;68.40;;;;;;5053726;28;20235;-92
2021/08/14 03:35:34;;;;;;;15.03;5.30;;;17.90;68.10;;;;;;5053587;28;20526;-92
2021/08/14 03:38:00;;;;;;;19.67;6.80;;;18.00;67.90;;;;;;5053223;28;20420;-92
2021/08/14 03:40:26;;;;;;;15.40;5.07;;;18.10;67.80;;;;;;5053376;28;20181;-92
2021/08/14 03:42:52;;;;;;;9.13;5.00;;;18.20;67.50;;;;;;5055905;28;20226;-91
2021/08/14 03:45:17;;;;;;;13.23;4.90;;;18.20;67.50;;;;;;5065138;28;20275;-92
2021/08/14 03:47:43;;;;;;;8.37;5.27;;;18.00;67.40;;;;;;5053046;28;20327;-92
2021/08/14 03:50:09;;;;;;;14.73;5.00;;;18.00;68.40;;;;;;5053323;28;20187;-92
2021/08/14 03:52:36;;;;;;;16.25;4.65;;;17.90;67.80;;;;;;5053696;28;20308;-92
2021/08/14 03:55:02;;;;;;;13.32;5.30;;;17.80;68.70;;;;;;5052932;28;20204;-92
2021/08/14 03:57:29;;;;;;;11.98;4.63;;;17.80;68.10;;;;;;5053278;28;20169;-92
2021/08/14 03:59:54;;;;;;;14.40;4.10;;;17.80;68.30;;;;;;5052866;28;20209;-92
2021/08/14 04:02:20;;;;;;;11.03;4.50;;;17.80;68.40;;;;;;5064076;28;20192;-92
2021/08/14 04:04:46;;;;;;;15.43;4.63;;;17.80;68.40;;;;;;5072241;28;20238;-91
2021/08/14 04:07:12;;;;;;;9.47;5.10;;;17.80;68.50;;;;;;5061017;28;20219;-92
2021/08/14 04:09:38;;;;;;;12.10;4.43;;;17.70;68.60;;;;;;5056538;28;20407;-92
2021/08/14 04:12:05;;;;;;;9.50;4.40;;;17.80;68.70;;;;;;5056327;28;20258;-91
2021/08/14 04:14:31;;;;;;;10.30;4.35;;;17.90;68.50;;;;;;5059007;28;20284;-92
2021/08/14 04:16:57;;;;;;;12.07;4.90;;;17.90;68.50;;;;;;5058015;28;20244;-92
2021/08/14 04:19:23;;;;;;;13.37;4.60;;;17.90;68.30;;;;;;5057067;28;20485;-92
2021/08/14 04:21:49;;;;;;;18.07;5.93;;;18.00;68.20;;;;;;5057510;28;20192;-92
2021/08/14 04:24:14;;;;;;;23.57;4.90;;;18.00;68.10;;;;;;5057812;28;20477;-92
2021/08/14 04:26:40;;;;;;;14.50;4.13;;;18.00;68.00;;;;;;5057844;28;20177;-92
2021/08/14 04:29:06;;;;;;;10.93;5.30;;;18.10;68.10;;;;;;5058534;28;20418;-92
2021/08/14 04:31:32;;;;;;;12.03;5.30;;;18.00;67.80;;;;;;5061869;28;20515;-91
2021/08/14 04:33:57;;;;;;;17.57;5.20;;;18.00;67.80;;;;;;5064286;28;20630;-92
2021/08/14 04:36:23;;;;;;;10.53;5.23;;;18.10;68.00;;;;;;5064441;28;20180;-92
2021/08/14 04:38:49;;;;;;;13.93;5.67;;;18.20;67.80;;;;;;5064116;28;20180;-91
2021/08/14 04:41:15;;;;;;;16.13;4.28;;;18.20;67.70;;;;;;5067611;28;20324;-91
2021/08/14 04:43:41;;;;;;;9.50;4.50;;;18.10;67.90;;;;;;5065247;28;20311;-91
2021/08/14 04:46:06;;;;;;;10.10;5.77;;;18.30;68.00;;;;;;5064321;28;20636;-91
2021/08/14 04:48:32;;;;;;;14.00;5.73;;;18.30;67.80;;;;;;5063601;28;20184;-92
2021/08/14 04:50:58;;;;;;;17.00;5.90;;;18.30;67.90;;;;;;5059744;28;20565;-92
2021/08/14 04:53:23;;;;;;;13.07;4.97;;;18.30;67.90;;;;;;5056713;28;20201;-92
2021/08/14 04:55:49;;;;;;;22.77;7.30;;;18.20;68.00;;;;;;5055822;28;20185;-92
2021/08/14 04:58:15;;;;;;;14.07;6.00;;;18.30;68.20;;;;;;5056253;28;20192;-92
2021/08/14 05:00:41;;;;;;;15.57;6.00;;;18.40;68.20;;;;;;5055977;28;20189;-92
2021/08/14 05:03:06;;;;;;;16.80;6.60;;;18.40;68.10;;;;;;5055736;28;20224;-92
2021/08/14 05:05:32;;;;;;;14.47;6.13;;;18.40;68.20;;;;;;5056901;28;20451;-92
2021/08/14 05:07:58;;;;;;;14.60;6.20;;;18.40;68.40;;;;;;5057417;28;20173;-92
2021/08/14 05:10:23;;;;;;;17.93;6.43;;;18.40;68.60;;;;;;5057092;28;20177;-92
2021/08/14 05:12:49;;;;;;;17.77;7.00;;;18.40;68.90;;;;;;5060001;28;20197;-92
2021/08/14 05:15:15;;;;;;;13.17;7.17;;;18.50;69.20;;;;;;5057232;28;20173;-92
2021/08/14 05:17:41;;;;;;;27.30;7.27;;;18.50;69.20;;;;;;5056173;28;20251;-92
2021/08/14 05:20:09;;;;;;;16.57;6.40;;;18.50;69.30;;;;;;5056856;28;20249;-92
2021/08/14 05:22:35;;;;;;;22.58;7.47;;;18.60;69.50;;;;;;5057078;28;20205;-92
2021/08/14 05:25:01;;;;;;;30.67;8.60;;;18.60;69.60;;;;;;5061743;28;20223;-92
2021/08/14 05:27:27;;;;;;;28.80;8.05;;;18.70;69.70;;;;;;5060876;28;20165;-92
2021/08/14 05:29:53;;;;;;;19.67;9.37;;;18.90;69.70;;;;;;5059896;28;20177;-92
2021/08/14 05:32:18;;;;;;;31.37;9.37;;;18.90;69.30;;;;;;5056357;28;20664;-92
2021/08/14 05:34:44;;;;;;;29.73;9.53;;;18.80;69.40;;;;;;5060402;28;20177;-92
2021/08/14 05:37:10;;;;;;;27.83;10.90;;;18.80;69.50;;;;;;5065785;28;20196;-92
2021/08/14 05:39:35;;;;;;;30.90;10.00;;;18.80;69.80;;;;;;5056194;28;20203;-92
2021/08/14 05:42:01;;;;;;;27.33;10.23;;;18.90;69.90;;;;;;5055023;28;20567;-92
2021/08/14 05:44:27;;;;;;;23.87;9.37;;;19.00;69.80;;;;;;5055554;28;20308;-92
2021/08/14 05:46:53;;;;;;;24.33;9.63;;;19.10;69.70;;;;;;5055425;28;20422;-92
2021/08/14 05:49:19;;;;;;;25.30;9.60;;;19.20;69.50;;;;;;5055096;28;20169;-92
2021/08/14 05:51:44;;;;;;;24.90;8.73;;;19.40;68.80;;;;;;5055128;28;20252;-92
2021/08/14 05:54:10;;;;;;;24.67;8.33;;;19.60;68.10;;;;;;5055287;28;20235;-92
2021/08/14 05:56:36;;;;;;;17.07;7.47;;;19.60;67.20;;;;;;5055629;28;20914;-92
2021/08/14 05:59:03;;;;;;;21.70;7.60;;;19.50;67.30;;;;;;5055882;28;20543;-92
2021/08/14 06:01:28;;;;;;;32.03;8.60;;;19.40;67.20;;;;;;5055041;28;20181;-92
2021/08/14 06:03:54;;;;;;;19.40;8.83;;;19.20;67.40;;;;;;5055067;28;20220;-92
2021/08/14 06:06:20;;;;;;;19.37;8.00;;;19.10;67.60;;;;;;5055099;28;20431;-92
2021/08/14 06:08:45;;;;;;;24.23;9.10;;;19.20;67.90;;;;;;5055349;28;20323;-92
2021/08/14 06:11:11;;;;;;;25.77;8.60;;;19.20;68.00;;;;;;5055076;28;20204;-91
2021/08/14 06:13:37;;;;;;;26.90;9.30;;;19.30;68.10;;;;;;5055244;28;20203;-92
2021/08/14 06:16:05;;;;;;;27.60;7.80;;;19.20;68.00;;;;;;5056218;28;20443;-92
2021/08/14 06:18:30;;;;;;;25.58;8.27;;;19.30;67.70;;;;;;5058133;28;20427;-92
2021/08/14 06:20:56;;;;;;;28.70;9.70;;;19.30;67.60;;;;;;5054719;28;20188;-92
2021/08/14 06:23:22;;;;;;;24.20;9.00;;;19.40;67.70;;;;;;5055494;28;20588;-92
2021/08/14 06:25:47;;;;;;;21.00;8.17;;;19.50;67.50;;;;;;5055429;28;20235;-92
2021/08/14 06:28:14;;;;;;;25.37;10.97;;;19.50;67.40;;;;;;5054961;28;20508;-92
2021/08/14 06:30:39;;;;;;;22.52;9.48;;;19.50;67.40;;;;;;5057622;28;20176;-92
2021/08/14 06:33:05;;;;;;;34.60;9.80;;;19.70;67.30;;;;;;5066333;28;20295;-92
2021/08/14 06:35:31;;;;;;;32.83;9.97;;;19.70;67.80;;;;;;5056858;28;20173;-92
2021/08/14 06:37:57;;;;;;;27.65;9.75;;;19.70;67.10;;;;;;5055386;28;20251;-92
2021/08/14 06:40:22;;;;;;;23.67;9.80;;;19.70;67.00;;;;;;5054979;28;20218;-92
2021/08/14 06:42:48;;;;;;;38.30;11.00;;;19.90;67.10;;;;;;5055669;28;20561;-92
2021/08/14 06:45:14;;;;;;;24.27;9.30;;;20.00;66.70;;;;;;5056665;28;20178;-92
2021/08/14 06:47:39;;;;;;;42.30;9.33;;;20.00;66.50;;;;;;5057260;28;20173;-92
2021/08/14 06:50:06;;;;;;;26.13;9.80;;;20.20;66.40;;;;;;5055888;28;20601;-92
2021/08/14 06:52:34;;;;;;;27.23;10.25;;;20.40;65.90;;;;;;5055095;28;20193;-92
2021/08/14 06:55:01;;;;;;;27.92;8.82;;;20.30;65.50;;;;;;5055968;28;20521;-92
2021/08/14 06:57:26;;;;;;;24.80;9.55;;;20.30;65.60;;;;;;5056060;28;20272;-92
2021/08/14 06:59:52;;;;;;;29.83;11.00;;;20.30;65.70;;;;;;5055477;28;20267;-92
2021/08/14 07:02:18;;;;;;;23.50;9.90;;;20.60;65.40;;;;;;5056445;28;20289;-92
2021/08/14 07:04:43;;;;;;;26.10;9.70;;;20.60;65.20;;;;;;5055701;28;20679;-92
2021/08/14 07:07:09;;;;;;;30.47;11.30;;;20.40;65.00;;;;;;5057623;28;20208;-92
2021/08/14 07:09:38;;;;;;;30.57;11.03;;;20.30;65.20;;;;;;5063300;28;20183;-92
2021/08/14 07:12:04;;;;;;;39.13;12.73;;;20.40;65.30;;;;;;5064965;28;20213;-92
2021/08/14 07:14:30;;;;;;;30.45;11.30;;;20.40;65.30;;;;;;5066733;28;20208;-92
2021/08/14 07:16:56;;;;;;;28.77;11.63;;;20.40;65.20;;;;;;5064905;28;20526;-92
2021/08/14 07:19:21;;;;;;;28.80;9.70;;;20.50;65.20;;;;;;5065439;28;20181;-92
2021/08/14 07:21:47;;;;;;;26.57;11.13;;;20.50;65.00;;;;;;5063159;28;20199;-92
2021/08/14 07:24:13;;;;;;;19.40;11.30;;;20.70;64.80;;;;;;5062853;28;20200;-92
2021/08/14 07:26:39;;;;;;;25.33;10.20;;;20.70;64.50;;;;;;5074258;28;20177;-92
2021/08/14 07:29:05;;;;;;;31.77;12.53;;;20.80;64.40;;;;;;5077113;28;20185;-92
2021/08/14 07:31:31;;;;;;;25.10;12.30;;;20.80;64.20;;;;;;5076883;28;20184;-91
2021/08/14 07:33:56;;;;;;;27.43;11.20;;;20.90;64.10;;;;;;5076860;28;20189;-93
2021/08/14 07:36:22;;;;;;;30.40;13.37;;;20.90;63.80;;;;;;5076390;28;20197;-92
2021/08/14 07:38:48;;;;;;;22.23;11.50;;;21.00;63.70;;;;;;5077002;28;20223;-91
2021/08/14 07:41:13;;;;;;;29.40;11.70;;;21.20;63.50;;;;;;5075589;28;20188;-91
2021/08/14 07:43:39;;;;;;;30.70;12.30;;;21.40;63.10;;;;;;5076677;28;20280;-92
2021/08/14 07:46:05;;;;;;;28.90;12.10;;;21.50;62.60;;;;;;5075882;28;20195;-92
2021/08/14 07:48:31;;;;;;;31.53;11.73;;;21.40;62.50;;;;;;5075861;28;20252;-92
2021/08/14 07:50:56;;;;;;;38.57;14.13;;;21.70;62.40;;;;;;5066723;28;20279;-92
2021/08/14 07:53:22;;;;;;;27.60;12.63;;;21.70;61.80;;;;;;5054494;28;20440;-92
2021/08/14 07:55:48;;;;;;;28.40;13.03;;;21.80;61.60;;;;;;5054167;28;20181;-92
2021/08/14 07:58:14;;;;;;;24.67;12.33;;;21.80;61.60;;;;;;5053599;28;20177;-92
2021/08/14 08:00:40;;;;;;;23.53;12.97;;;21.90;61.60;;;;;;5053993;28;20181;-92
2021/08/14 08:03:10;;;;;;;35.73;13.20;;;22.00;61.20;;;;;;5054475;28;20990;-92
2021/08/14 08:05:37;;;;;;;27.10;10.93;;;22.20;61.10;;;;;;5056146;28;20419;-92
2021/08/14 08:08:04;;;;;;;22.37;11.63;;;22.00;61.00;;;;;;5056958;28;20423;-92
2021/08/14 08:10:30;;;;;;;29.30;11.27;;;22.00;61.30;;;;;;5057870;28;20407;-92
2021/08/14 08:12:56;;;;;;;29.57;12.77;;;22.20;61.30;;;;;;5056022;28;20447;-92
2021/08/14 08:15:22;;;;;;;23.00;11.77;;;22.20;61.20;;;;;;5055321;28;20419;-92
2021/08/14 08:17:48;;;;;;;24.07;11.03;;;22.30;61.00;;;;;;5054358;28;20463;-92
2021/08/14 08:20:16;;;;;;;26.57;12.60;;;22.40;61.00;;;;;;5053295;28;20420;-92
2021/08/14 08:22:42;;;;;;;29.20;12.70;;;22.40;60.60;;;;;;5055065;28;20209;-92
2021/08/14 08:25:09;;;;;;;23.93;10.87;;;22.40;60.70;;;;;;5064781;28;20443;-92
2021/08/14 08:27:46;;;;;;;20.50;11.17;;;22.20;61.00;;;;;;5055436;28;20420;-92
2021/08/14 08:30:14;;;;;;;32.03;11.00;;;22.30;61.10;;;;;;5054125;28;20430;-92
2021/08/14 08:32:40;;;;;;;25.77;11.23;;;22.50;60.70;;;;;;5054119;28;20447;-92
2021/08/14 08:35:08;;;;;;;25.20;11.03;;;22.00;60.90;;;;;;5054240;28;20443;-92
2021/08/14 08:37:34;;;;;;;21.33;11.53;;;21.80;61.90;;;;;;5053218;28;20933;-91
2021/08/14 08:40:00;;;;;;;24.53;11.13;;;21.80;62.40;;;;;;5054711;28;20416;-92
2021/08/14 08:42:26;;;;;;;27.07;11.60;;;21.70;62.80;;;;;;5053284;28;20450;-92
2021/08/14 08:44:52;;;;;;;24.67;11.67;;;21.60;63.20;;;;;;5053202;28;20420;-92
2021/08/14 08:47:17;;;;;;;29.13;12.47;;;21.70;63.40;;;;;;5053977;28;20463;-92
2021/08/14 08:49:53;;;;;;;23.13;12.50;;;21.70;63.10;;;;;;5053320;28;20427;-92
2021/08/14 08:52:23;;;;;;;20.33;10.83;;;21.70;63.40;;;;;;5053597;28;20196;-92
2021/08/14 08:54:50;;;;;;;31.27;11.60;;;21.60;63.70;;;;;;5052938;28;20431;-92
2021/08/14 08:57:16;;;;;;;19.87;11.03;;;21.80;63.80;;;;;;5053818;28;20505;-92
2021/08/14 08:59:44;;;;;;;18.67;10.70;;;22.20;63.40;;;;;;5058005;28;20953;-92
2021/08/14 09:02:39;;;;;;;19.20;10.10;;;22.80;61.50;;;;;;5058053;28;20436;-92
2021/08/14 09:05:09;;;;;;;27.30;11.63;;;23.30;60.50;;;;;;5045996;28;20844;-92
2021/08/14 09:07:36;;;;;;;29.63;11.27;;;23.60;59.40;;;;;;5057359;28;20403;-92
2021/08/14 09:10:07;;;;;;;21.17;12.20;;;24.00;58.30;;;;;;5056911;28;20446;-92
2021/08/14 09:12:43;;;;;;;21.60;13.70;;;23.80;57.50;;;;;;5056955;28;20432;-92
2021/08/14 09:15:19;;;;;;;23.97;11.90;;;23.70;58.20;;;;;;5057230;28;20431;-92
2021/08/14 09:17:46;;;;;;;24.87;13.20;;;23.90;58.00;;;;;;5057453;28;20469;-92
2021/08/14 09:20:15;;;;;;;22.17;13.07;;;24.30;57.30;;;;;;5070036;28;20454;-92
2021/08/14 09:22:44;;;;;;;16.00;10.13;;;24.20;56.60;;;;;;5058636;28;20492;-92
2021/08/14 09:25:16;;;;;;;16.83;10.60;;;24.40;56.60;;;;;;5059055;28;20415;-92
2021/08/14 09:27:55;;;;;;;18.50;10.53;;;24.60;56.00;;;;;;5057597;28;20418;-92
2021/08/14 09:30:43;;;;;;;19.20;10.40;;;24.50;55.60;;;;;;5056860;28;20415;-92
2021/08/14 09:33:10;;;;;;;27.80;10.77;;;24.40;55.80;;;;;;5062944;28;20447;-91
2021/08/14 09:35:36;;;;;;;22.00;9.97;;;24.50;55.70;;;;;;5058054;28;20419;-92
2021/08/14 09:38:05;;;;;;;15.07;10.40;;;24.60;55.40;;;;;;5057424;28;20473;-92
2021/08/14 09:40:49;;;;;;;22.23;12.50;;;24.70;55.10;;;;;;5057271;28;20435;-92
2021/08/14 09:43:31;;;;;;;18.73;8.90;;;25.00;54.80;;;;;;5056618;28;20527;-92
2021/08/14 09:45:57;;;;;;;17.50;9.07;;;25.00;54.50;;;;;;5056863;28;20423;-92
2021/08/14 09:48:24;;;;;;;19.00;8.90;;;25.10;54.20;;;;;;5057659;28;20415;-92
2021/08/14 09:50:51;;;;;;;16.23;9.43;;;25.10;53.80;;;;;;5057448;28;20180;-92
2021/08/14 09:53:21;;;;;;;21.87;9.70;;;25.10;53.70;;;;;;5056472;28;20440;-92
2021/08/14 09:55:50;;;;;;;17.90;9.47;;;24.90;54.30;;;;;;5056483;28;20423;-92
2021/08/14 09:58:20;;;;;;;17.60;9.37;;;24.90;54.60;;;;;;5056951;28;20763;-92
2021/08/14 10:00:48;;;;;;;18.37;9.70;;;24.80;54.40;;;;;;5057120;28;20416;-92
2021/08/14 10:03:16;;;;;;;13.17;9.40;;;24.90;54.40;;;;;;5055855;28;20466;-92
2021/08/14 10:05:43;;;;;;;18.67;8.97;;;24.80;54.40;;;;;;5055767;28;20412;-92
2021/08/14 10:08:09;;;;;;;23.33;10.63;;;24.60;55.00;;;;;;5056349;28;20466;-92
2021/08/14 10:10:36;;;;;;;17.37;10.37;;;24.40;55.40;;;;;;5055202;28;20423;-92
2021/08/14 10:13:02;;;;;;;15.73;8.47;;;24.60;55.50;;;;;;5055419;28;20439;-92
2021/08/14 10:15:29;;;;;;;19.30;9.27;;;24.50;54.80;;;;;;5061638;28;20416;-91
2021/08/14 10:17:55;;;;;;;17.90;8.80;;;24.00;55.20;;;;;;5064051;28;20501;-92
2021/08/14 10:20:22;;;;;;;21.83;10.17;;;23.80;55.90;;;;;;5056525;28;20447;-92
2021/08/14 10:22:56;;;;;;;16.67;9.27;;;23.70;56.00;;;;;;5055815;28;20470;-92
2021/08/14 10:25:23;;;;;;;18.33;10.43;;;23.70;56.50;;;;;;5056528;28;20411;-92
2021/08/14 10:27:59;;;;;;;17.93;9.43;;;23.70;56.60;;;;;;5056709;28;20499;-93
2021/08/14 10:30:52;;;;;;;17.40;8.17;;;23.80;57.00;;;;;;5056055;28;20415;-92
2021/08/14 10:33:30;;;;;;;25.40;9.40;;;24.10;56.70;;;;;;5055975;28;20483;-92
2021/08/14 10:35:58;;;;;;;16.03;8.70;;;24.40;55.70;;;;;;5056181;28;20432;-92
2021/08/14 10:38:50;;;;;;;16.90;8.70;;;24.40;55.60;;;;;;5061704;28;20535;-92
2021/08/14 10:41:17;;;;;;;16.73;8.77;;;24.50;55.60;;;;;;5056920;28;20428;-92
2021/08/14 10:43:52;;;;;;;20.50;8.40;;;24.60;55.20;;;;;;5056057;28;20459;-93
2021/08/14 10:46:41;;;;;;;15.53;8.40;;;24.30;54.40;;;;;;5055888;28;20461;-92
2021/08/14 10:49:12;;;;;;;25.20;9.07;;;24.10;54.60;;;;;;5056793;28;20407;-92
2021/08/14 10:51:52;;;;;;;18.87;10.20;;;23.80;55.30;;;;;;5055484;28;20411;-92
2021/08/14 10:54:31;;;;;;;31.67;10.30;;;23.70;55.90;;;;;;5055522;28;20423;-92
2021/08/14 10:57:01;;;;;;;18.33;8.57;;;23.70;56.30;;;;;;5056228;28;20427;-92
2021/08/14 10:59:37;;;;;;;19.67;9.27;;;23.50;56.40;;;;;;5068382;28;20412;-92
2021/08/14 11:02:12;;;;;;;19.13;9.30;;;23.40;56.60;;;;;;5070532;28;20443;-92
2021/08/14 11:04:54;;;;;;;19.60;9.33;;;23.50;56.80;;;;;;5055990;28;20513;-92
2021/08/14 11:07:20;;;;;;;18.27;8.20;;;23.50;56.50;;;;;;5057483;28;20503;-92
2021/08/14 11:09:49;;;;;;;16.83;7.57;;;23.40;56.60;;;;;;5056981;28;20442;-92
2021/08/14 11:12:39;;;;;;;17.73;10.23;;;23.30;56.60;;;;;;5064837;28;20435;-90
2021/08/14 11:15:31;;;;;;;12.27;6.70;;;23.20;56.60;;;;;;5055921;28;20478;-92
2021/08/14 11:18:00;;;;;;;15.83;7.23;;;23.20;56.70;;;;;;5056564;28;20423;-92
2021/08/14 11:20:26;;;;;;;26.60;8.17;;;23.20;57.00;;;;;;5055111;28;20778;-93
2021/08/14 11:22:57;;;;;;;21.60;7.63;;;23.30;57.10;;;;;;5055110;28;20463;-92
2021/08/14 11:25:36;;;;;;;30.83;8.60;;;23.30;56.60;;;;;;5055619;28;20404;-92
2021/08/14 11:28:10;;;;;;;23.10;9.67;;;23.60;56.30;;;;;;5056383;28;20492;-92
2021/08/14 11:30:39;;;;;;;23.80;10.07;;;23.70;56.30;;;;;;5056933;28;20462;-92
2021/08/14 11:33:09;;;;;;;17.83;8.37;;;23.80;56.10;;;;;;5058225;28;20484;-92
2021/08/14 11:35:37;;;;;;;21.93;8.90;;;24.00;55.80;;;;;;5057086;28;20427;-92
2021/08/14 11:38:08;;;;;;;16.73;8.10;;;24.00;55.60;;;;;;5058455;28;20890;-92
2021/08/14 11:40:38;;;;;;;14.60;7.33;;;24.10;55.80;;;;;;5058498;28;20448;-92
2021/08/14 11:43:14;;;;;;;25.63;10.33;;;24.00;55.20;;;;;;5057022;28;20471;-92
2021/08/14 11:45:43;;;;;;;22.53;10.53;;;23.90;55.80;;;;;;5061864;28;20412;-93
2021/08/14 11:48:11;;;;;;;16.03;8.83;;;23.90;56.10;;;;;;5057061;28;20423;-92
2021/08/14 11:50:41;;;;;;;17.03;7.53;;;24.00;55.80;;;;;;5056968;28;20538;-92
2021/08/14 11:53:09;;;;;;;13.17;6.87;;;24.00;54.90;;;;;;5056185;28;20472;-92
2021/08/14 11:55:35;;;;;;;11.53;6.70;;;24.20;54.70;;;;;;5058225;28;20432;-92
2021/08/14 11:58:07;;;;;;;22.60;10.20;;;24.20;54.90;;;;;;5056954;28;20500;-92
2021/08/14 12:00:39;;;;;;;15.30;8.50;;;24.00;55.10;;;;;;5059196;28;20867;-93
2021/08/14 12:03:15;;;;;;;16.57;8.37;;;24.10;55.20;;;;;;5062274;28;20463;-92
2021/08/14 12:05:48;;;;;;;11.60;7.27;;;23.80;55.20;;;;;;5059570;28;20487;-93
2021/08/14 12:08:30;;;;;;;15.80;8.13;;;23.80;55.30;;;;;;5062289;28;20419;-92
2021/08/14 12:11:01;;;;;;;19.47;9.27;;;24.00;54.60;;;;;;5061106;28;20432;-92
2021/08/14 12:13:27;;;;;;;16.37;10.97;;;24.10;54.20;;;;;;5054893;28;20440;-92
2021/08/14 12:16:17;;;;;;;14.53;7.70;;;24.00;53.70;;;;;;5056186;28;20435;-93
2021/08/14 12:18:49;;;;;;;18.77;8.87;;;24.00;53.80;;;;;;5056872;28;20442;-92
2021/08/14 12:21:36;;;;;;;18.83;7.50;;;24.20;53.70;;;;;;5056340;28;20452;-92
2021/08/14 12:24:09;;;;;;;16.87;7.20;;;24.40;52.40;;;;;;5057449;28;20471;-93
2021/08/14 12:26:35;;;;;;;12.27;7.00;;;24.60;51.30;;;;;;5056119;28;20416;-92
2021/08/14 12:29:32;;;;;;;13.60;7.63;;;24.60;50.60;;;;;;5046703;28;20476;-92
2021/08/14 12:32:03;;;;;;;12.77;7.77;;;24.60;50.70;;;;;;5051137;28;20435;-92
2021/08/14 12:34:41;;;;;;;17.77;9.13;;;24.50;50.90;;;;;;5054548;28;20432;-92
2021/08/14 12:37:28;;;;;;;13.40;8.43;;;24.40;51.10;;;;;;5067778;28;20415;-95
2021/08/14 12:39:59;;;;;;;15.07;8.30;;;24.10;51.30;;;;;;5069699;28;20420;-95